createdAt,value
2022-09-10T00:01:31.555Z,14.61
2022-09-10T00:03:59.982Z,14.76
2022-09-10T00:06:28.529Z,14.78
2022-09-10T00:09:01.722Z,14.85
2022-09-10T00:11:32.079Z,14.78
2022-09-10T00:14:01.460Z,14.65
2022-09-10T00:16:30.180Z,14.69
2022-09-10T00:18:58.297Z,14.77
2022-09-10T00:21:26.011Z,14.88
2022-09-10T00:23:54.369Z,14.85
2022-09-10T00:26:24.496Z,14.66
2022-09-10T00:28:55.416Z,14.63
2022-09-10T00:31:26.762Z,14.80
2022-09-10T00:33:54.792Z,14.76
2022-09-10T00:36:25.531Z,14.66
2022-09-10T00:38:54.855Z,14.68
2022-09-10T00:41:24.117Z,14.76
2022-09-10T00:43:57.863Z,14.73
2022-09-10T00:46:29.555Z,14.73
2022-09-10T00:48:58.770Z,14.72
2022-09-10T00:51:30.072Z,14.70
2022-09-10T00:53:58.039Z,14.72
2022-09-10T00:56:26.044Z,14.70
2022-09-10T00:58:55.092Z,14.72
2022-09-10T01:01:23.216Z,14.65
2022-09-10T01:03:53.397Z,14.59
2022-09-10T01:06:21.168Z,14.59
2022-09-10T01:08:48.664Z,14.60
2022-09-10T01:11:34.830Z,14.61
2022-09-10T01:14:15.596Z,14.62
2022-09-10T01:16:49.491Z,14.62
2022-09-10T01:19:32.763Z,14.67
2022-09-10T01:22:08.029Z,14.49
2022-09-10T01:24:45.580Z,14.58
2022-09-10T01:27:42.520Z,14.64
2022-09-10T01:30:14.608Z,14.63
2022-09-10T01:32:51.617Z,14.55
2022-09-10T01:35:21.341Z,14.47
2022-09-10T01:37:52.026Z,14.45
2022-09-10T01:40:20.174Z,14.46
2022-09-10T01:42:49.875Z,14.49
2022-09-10T01:45:17.597Z,14.43
2022-09-10T01:47:59.544Z,14.49
2022-09-10T01:50:32.338Z,14.63
2022-09-10T01:53:10.573Z,14.58
2022-09-10T01:55:44.103Z,14.61
2022-09-10T01:58:19.905Z,14.58
2022-09-10T02:00:54.314Z,14.45
2022-09-10T02:03:25.124Z,14.44
2022-09-10T02:05:54.653Z,14.48
2022-09-10T02:08:24.299Z,14.48
2022-09-10T02:10:53.849Z,14.49
2022-09-10T02:13:23.013Z,14.47
2022-09-10T02:15:51.838Z,14.49
2022-09-10T02:18:20.507Z,14.38
2022-09-10T02:20:48.819Z,14.41
2022-09-10T02:23:19.040Z,14.49
2022-09-10T02:25:50.501Z,14.53
2022-09-10T02:28:18.475Z,14.49
2022-09-10T02:30:48.199Z,14.55
2022-09-10T02:33:16.803Z,14.56
2022-09-10T02:35:44.338Z,14.55
2022-09-10T02:38:12.089Z,14.56
2022-09-10T02:40:39.605Z,14.61
2022-09-10T02:43:07.105Z,14.68
2022-09-10T02:45:34.583Z,14.71
2022-09-10T02:48:04.137Z,14.69
2022-09-10T02:50:31.581Z,14.64
2022-09-10T02:52:59.209Z,14.67
2022-09-10T02:55:26.659Z,14.66
2022-09-10T02:57:54.509Z,14.75
2022-09-10T03:00:22.625Z,14.71
2022-09-10T03:02:50.575Z,14.72
2022-09-10T03:05:19.441Z,14.71
2022-09-10T03:07:47.857Z,14.68
2022-09-10T03:10:15.309Z,14.59
2022-09-10T03:12:42.736Z,14.61
2022-09-10T03:15:11.841Z,14.64
2022-09-10T03:17:39.532Z,14.67
2022-09-10T03:20:08.069Z,14.60
2022-09-10T03:22:38.090Z,14.53
2022-09-10T03:25:06.524Z,14.47
2022-09-10T03:27:33.974Z,14.44
2022-09-10T03:30:01.418Z,14.47
2022-09-10T03:32:28.877Z,14.54
2022-09-10T03:34:56.605Z,14.56
2022-09-10T03:37:24.544Z,14.55
2022-09-10T03:39:53.457Z,14.56
2022-09-10T03:42:20.953Z,14.37
2022-09-10T03:44:48.396Z,14.35
2022-09-10T03:47:15.833Z,14.31
2022-09-10T03:49:43.524Z,14.45
2022-09-10T03:52:12.670Z,14.54
2022-09-10T03:54:40.162Z,14.65
2022-09-10T03:57:08.997Z,14.54
2022-09-10T03:59:37.679Z,14.45
2022-09-10T04:02:05.467Z,14.40
2022-09-10T04:04:33.780Z,14.37
2022-09-10T04:07:01.644Z,14.42
2022-09-10T04:09:29.097Z,14.45
2022-09-10T04:11:56.813Z,14.51
2022-09-10T04:14:26.224Z,14.51
2022-09-10T04:16:53.679Z,14.50
2022-09-10T04:19:21.125Z,14.56
2022-09-10T04:21:48.932Z,14.54
2022-09-10T04:24:16.577Z,14.57
2022-09-10T04:26:44.014Z,14.49
2022-09-10T04:29:11.557Z,14.43
2022-09-10T04:31:42.016Z,14.36
2022-09-10T04:34:09.451Z,14.36
2022-09-10T04:36:36.937Z,14.36
2022-09-10T04:39:04.561Z,14.31
2022-09-10T04:41:32.054Z,14.25
2022-09-10T04:43:59.571Z,14.27
2022-09-10T04:46:27.178Z,14.30
2022-09-10T04:48:55.987Z,14.24
2022-09-10T04:51:23.417Z,14.32
2022-09-10T04:53:50.896Z,14.28
2022-09-10T04:56:18.457Z,14.31
2022-09-10T04:58:46.427Z,14.26
2022-09-10T05:01:14.243Z,14.36
2022-09-10T05:03:41.747Z,14.31
2022-09-10T05:06:10.544Z,14.28
2022-09-10T05:08:38.055Z,14.31
2022-09-10T05:11:06.245Z,14.28
2022-09-10T05:13:33.653Z,14.29
2022-09-10T05:16:01.548Z,14.32
2022-09-10T05:18:29.017Z,14.40
2022-09-10T05:20:56.472Z,14.49
2022-09-10T05:23:25.559Z,14.48
2022-09-10T05:25:53.698Z,14.52
2022-09-10T05:28:21.830Z,14.56
2022-09-10T05:30:51.785Z,14.59
2022-09-10T05:33:19.461Z,14.61
2022-09-10T05:35:49.271Z,14.59
2022-09-10T05:38:16.685Z,14.62
2022-09-10T05:40:45.578Z,14.65
2022-09-10T05:43:13.017Z,14.62
2022-09-10T05:45:40.558Z,14.62
2022-09-10T05:48:08.030Z,14.56
2022-09-10T05:50:35.459Z,14.62
2022-09-10T05:53:02.903Z,14.68
2022-09-10T05:55:31.201Z,14.66
2022-09-10T05:57:59.969Z,14.72
2022-09-10T06:00:27.445Z,14.73
2022-09-10T06:02:55.094Z,14.75
2022-09-10T06:05:23.001Z,14.75
2022-09-10T06:07:50.482Z,14.74
2022-09-10T06:10:18.404Z,14.72
2022-09-10T06:12:46.929Z,14.72
2022-09-10T06:15:16.516Z,14.72
2022-09-10T06:17:43.965Z,14.79
2022-09-10T06:20:12.639Z,14.74
2022-09-10T06:22:40.232Z,14.83
2022-09-10T06:25:08.224Z,14.93
2022-09-10T06:27:35.637Z,14.96
2022-09-10T06:30:03.082Z,14.92
2022-09-10T06:32:32.475Z,14.87
2022-09-10T06:34:59.899Z,14.84
2022-09-10T06:37:27.843Z,14.86
2022-09-10T06:39:55.402Z,14.85
2022-09-10T06:42:23.809Z,14.86
2022-09-10T06:44:51.995Z,14.80
2022-09-10T06:48:06.567Z,14.80
2022-09-10T06:50:09.833Z,14.83
2022-09-10T06:52:37.645Z,14.83
2022-09-10T06:55:06.028Z,14.93
2022-09-10T06:57:33.574Z,14.92
2022-09-10T07:00:01.582Z,14.83
2022-09-10T07:02:31.203Z,14.92
2022-09-10T07:04:58.818Z,14.93
2022-09-10T07:07:28.272Z,14.90
2022-09-10T07:09:55.843Z,14.97
2022-09-10T07:12:23.365Z,15.01
2022-09-10T07:14:50.910Z,15.04
2022-09-10T07:17:21.009Z,15.04
2022-09-10T07:19:48.725Z,15.10
2022-09-10T07:22:16.344Z,14.99
2022-09-10T07:24:50.304Z,15.02
2022-09-10T07:27:20.391Z,15.10
2022-09-10T07:29:48.038Z,15.07
2022-09-10T07:32:17.387Z,15.04
2022-09-10T07:34:46.591Z,15.00
2022-09-10T07:37:16.713Z,14.96
2022-09-10T07:39:46.000Z,14.96
2022-09-10T07:42:14.424Z,15.14
2022-09-10T07:44:42.033Z,15.24
2022-09-10T07:47:09.572Z,15.24
2022-09-10T07:49:37.060Z,15.28
2022-09-10T07:52:04.793Z,15.43
2022-09-10T07:54:32.243Z,15.50
2022-09-10T07:57:01.240Z,15.56
2022-09-10T07:59:28.704Z,15.59
2022-09-10T08:01:56.204Z,15.57
2022-09-10T08:04:24.417Z,15.73
2022-09-10T08:06:52.093Z,15.83
2022-09-10T08:09:20.335Z,15.89
2022-09-10T08:11:47.800Z,16.02
2022-09-10T08:14:16.596Z,16.02
2022-09-10T08:16:44.652Z,16.01
2022-09-10T08:19:13.689Z,15.99
2022-09-10T08:21:41.190Z,16.18
2022-09-10T08:24:08.702Z,16.46
2022-09-10T08:26:36.223Z,16.58
2022-09-10T08:29:04.085Z,16.52
2022-09-10T08:31:32.930Z,16.34
2022-09-10T08:34:00.438Z,16.26
2022-09-10T08:36:27.992Z,16.20
2022-09-10T08:39:00.651Z,16.24
2022-09-10T08:41:38.909Z,16.28
2022-09-10T08:44:12.449Z,16.19
2022-09-10T08:46:46.134Z,16.23
2022-09-10T08:49:19.352Z,16.23
2022-09-10T08:51:51.862Z,16.15
2022-09-10T08:54:22.433Z,16.11
2022-09-10T08:56:50.689Z,16.17
2022-09-10T08:59:22.320Z,16.18
2022-09-10T09:01:54.865Z,16.24
2022-09-10T09:04:29.641Z,16.25
2022-09-10T09:07:00.080Z,16.26
2022-09-10T09:09:27.523Z,16.34
2022-09-10T09:11:59.392Z,16.33
2022-09-10T09:14:45.137Z,16.23
2022-09-10T09:17:28.257Z,16.29
2022-09-10T09:20:01.560Z,16.37
2022-09-10T09:22:38.153Z,16.51
2022-09-10T09:25:12.749Z,16.60
2022-09-10T09:27:42.146Z,16.70
2022-09-10T09:30:16.910Z,16.87
2022-09-10T09:32:46.774Z,17.04
2022-09-10T09:35:23.700Z,17.03
2022-09-10T09:37:52.447Z,17.20
2022-09-10T09:40:26.581Z,17.09
2022-09-10T09:42:56.179Z,16.97
2022-09-10T09:45:27.406Z,16.78
2022-09-10T09:47:56.385Z,16.79
2022-09-10T09:50:23.866Z,16.71
2022-09-10T09:52:56.223Z,16.72
2022-09-10T09:55:30.735Z,16.65
2022-09-10T09:58:30.372Z,16.56
2022-09-10T10:01:10.046Z,16.55
2022-09-10T10:03:48.226Z,16.59
2022-09-10T10:06:16.486Z,16.54
2022-09-10T10:08:45.215Z,16.59
2022-09-10T10:11:14.642Z,16.63
2022-09-10T10:13:43.915Z,16.66
2022-09-10T10:16:19.412Z,16.61
2022-09-10T10:18:48.537Z,16.63
2022-09-10T10:21:18.439Z,16.74
2022-09-10T10:23:45.967Z,16.74
2022-09-10T10:26:27.555Z,16.69
2022-09-10T10:28:58.544Z,16.98
2022-09-10T10:31:34.580Z,16.83
2022-09-10T10:34:22.038Z,16.84
2022-09-10T10:36:57.062Z,16.81
2022-09-10T10:39:35.931Z,16.88
2022-09-10T10:42:07.144Z,16.90
2022-09-10T10:44:51.162Z,17.05
2022-09-10T10:47:29.507Z,17.34
2022-09-10T10:50:04.910Z,17.48
2022-09-10T10:52:39.530Z,17.45
2022-09-10T10:55:13.798Z,17.50
2022-09-10T10:57:53.349Z,17.62
2022-09-10T11:00:21.248Z,17.77
2022-09-10T11:02:52.719Z,17.96
2022-09-10T11:07:53.865Z,17.96
2022-09-10T11:10:25.265Z,17.88
2022-09-10T11:12:57.127Z,18.00
2022-09-10T11:15:30.224Z,17.94
2022-09-10T11:18:01.379Z,17.99
2022-09-10T11:20:34.409Z,18.12
2022-09-10T11:23:12.068Z,18.09
2022-09-10T11:25:46.570Z,18.03
2022-09-10T11:28:17.475Z,18.19
2022-09-10T11:30:50.469Z,18.36
2022-09-10T11:33:24.411Z,18.35
2022-09-10T11:35:59.770Z,18.39
2022-09-10T11:38:30.499Z,18.48
2022-09-10T11:41:09.283Z,18.40
2022-09-10T11:43:42.857Z,18.62
2022-09-10T11:46:14.243Z,18.75
2022-09-10T11:48:44.265Z,18.93
2022-09-10T11:51:17.699Z,18.95
2022-09-10T11:53:45.296Z,18.88
2022-09-10T11:56:23.903Z,18.64
2022-09-10T11:58:59.574Z,18.65
2022-09-10T12:01:37.959Z,19.05
2022-09-10T12:04:17.181Z,19.34
2022-09-10T12:06:54.989Z,19.47
2022-09-10T12:09:25.796Z,19.70
2022-09-10T12:12:00.621Z,19.76
2022-09-10T12:14:28.152Z,19.78
2022-09-10T12:16:57.977Z,19.87
2022-09-10T12:19:29.156Z,19.90
2022-09-10T12:21:59.789Z,20.07
2022-09-10T12:24:30.860Z,20.10
2022-09-10T12:26:59.762Z,19.99
2022-09-10T12:29:35.832Z,19.80
2022-09-10T12:32:32.302Z,19.68
2022-09-10T12:35:45.471Z,19.44
2022-09-10T12:38:49.997Z,19.47
2022-09-10T12:41:54.971Z,19.37
2022-09-10T12:44:55.076Z,19.55
2022-09-10T12:47:39.948Z,19.79
2022-09-10T12:50:19.168Z,20.03
2022-09-10T12:52:57.101Z,20.22
2022-09-10T12:55:38.205Z,20.33
2022-09-10T12:58:14.341Z,20.46
2022-09-10T13:00:46.595Z,20.34
2022-09-10T13:03:17.037Z,20.10
2022-09-10T13:05:51.380Z,20.33
2022-09-10T13:08:21.305Z,19.86
2022-09-10T13:11:08.645Z,19.53
2022-09-10T13:13:38.408Z,19.57
2022-09-10T13:16:07.549Z,19.93
2022-09-10T13:18:36.438Z,20.22
2022-09-10T13:21:36.392Z,20.55
2022-09-10T13:24:04.115Z,20.71
2022-09-10T13:26:49.842Z,20.91
2022-09-10T13:29:44.872Z,21.06
2022-09-10T13:32:20.347Z,21.14
2022-09-10T13:35:11.645Z,21.17
2022-09-10T13:37:54.630Z,21.26
2022-09-10T13:40:43.890Z,21.39
2022-09-10T13:43:26.509Z,21.30
2022-09-10T13:45:57.157Z,21.47
2022-09-10T13:48:28.106Z,21.36
2022-09-10T13:51:00.394Z,21.59
2022-09-10T13:53:29.588Z,21.66
2022-09-10T13:55:59.001Z,21.51
2022-09-10T13:58:30.591Z,21.06
2022-09-10T14:01:00.788Z,21.23
2022-09-10T14:03:32.032Z,21.30
2022-09-10T14:06:05.167Z,21.28
2022-09-10T14:08:38.446Z,20.88
2022-09-10T14:11:12.249Z,20.78
2022-09-10T14:13:43.383Z,20.91
2022-09-10T14:16:14.181Z,21.01
2022-09-10T14:18:44.949Z,21.01
2022-09-10T14:21:14.704Z,20.75
2022-09-10T14:23:46.538Z,20.85
2022-09-10T14:26:17.286Z,20.72
2022-09-10T14:28:55.008Z,20.38
2022-09-10T14:31:30.585Z,20.22
2022-09-10T14:33:59.148Z,20.19
2022-09-10T14:36:34.544Z,20.14
2022-09-10T14:39:07.386Z,20.24
2022-09-10T14:41:36.999Z,19.89
2022-09-10T14:44:29.691Z,19.89
2022-09-10T14:46:59.063Z,19.93
2022-09-10T14:49:40.042Z,20.03
2022-09-10T14:52:08.000Z,19.89
2022-09-10T14:54:36.064Z,19.37
2022-09-10T14:57:05.331Z,18.95
2022-09-10T14:59:38.707Z,18.61
2022-09-10T15:02:13.131Z,18.40
2022-09-10T15:04:45.659Z,18.10
2022-09-10T15:07:14.343Z,18.03
2022-09-10T15:09:42.051Z,17.91
2022-09-10T15:12:19.519Z,18.02
2022-09-10T15:14:48.520Z,18.01
2022-09-10T15:17:18.311Z,17.78
2022-09-10T15:19:48.711Z,17.47
2022-09-10T15:22:23.449Z,17.19
2022-09-10T15:25:10.037Z,17.30
2022-09-10T15:27:38.460Z,17.47
2022-09-10T15:30:08.936Z,17.58
2022-09-10T15:32:36.787Z,17.59
2022-09-10T15:35:05.337Z,17.71
2022-09-10T15:37:35.892Z,17.68
2022-09-10T15:40:04.514Z,17.81
2022-09-10T15:42:32.607Z,17.93
2022-09-10T15:45:02.537Z,18.22
2022-09-10T15:47:46.615Z,18.35
2022-09-10T15:50:19.994Z,18.35
2022-09-10T15:52:47.783Z,18.30
2022-09-10T15:55:15.621Z,18.42
2022-09-10T15:57:43.354Z,18.44
2022-09-10T16:00:13.138Z,18.53
2022-09-10T16:02:41.015Z,18.59
2022-09-10T16:05:10.529Z,18.38
2022-09-10T16:07:38.217Z,18.39
2022-09-10T16:10:11.014Z,18.22
2022-09-10T16:12:40.301Z,18.13
2022-09-10T16:15:09.624Z,18.02
2022-09-10T16:17:38.526Z,18.02
2022-09-10T16:20:07.142Z,18.13
2022-09-10T16:22:36.277Z,18.02
2022-09-10T16:25:08.340Z,18.06
2022-09-10T16:27:38.644Z,18.06
2022-09-10T16:30:11.116Z,18.00
2022-09-10T16:32:38.977Z,17.68
2022-09-10T16:35:08.583Z,17.76
2022-09-10T16:37:39.665Z,17.72
2022-09-10T16:40:09.275Z,17.47
2022-09-10T16:42:37.118Z,17.53
2022-09-10T16:45:08.093Z,17.51
2022-09-10T16:47:39.607Z,17.47
2022-09-10T16:50:08.170Z,17.33
2022-09-10T16:52:39.574Z,17.26
2022-09-10T16:55:12.131Z,17.33
2022-09-10T16:57:39.807Z,17.22
2022-09-10T17:00:09.572Z,17.25
2022-09-10T17:02:37.851Z,17.18
2022-09-10T17:05:06.039Z,17.18
2022-09-10T17:07:33.897Z,17.22
2022-09-10T17:10:02.885Z,17.20
2022-09-10T17:12:30.583Z,17.17
2022-09-10T17:14:58.178Z,17.00
2022-09-10T17:17:25.696Z,17.02
2022-09-10T17:19:53.318Z,17.12
2022-09-10T17:22:20.802Z,17.10
2022-09-10T17:24:49.254Z,17.12
2022-09-10T17:27:19.845Z,17.09
2022-09-10T17:29:49.868Z,16.93
2022-09-10T17:32:17.363Z,16.83
2022-09-10T17:34:44.898Z,16.87
2022-09-10T17:37:12.399Z,16.95
2022-09-10T17:39:39.875Z,16.96
2022-09-10T17:42:07.972Z,16.93
2022-09-10T17:44:36.763Z,16.85
2022-09-10T17:47:05.740Z,16.95
2022-09-10T17:49:39.572Z,16.88
2022-09-10T17:52:09.537Z,16.68
2022-09-10T17:54:40.205Z,16.63
2022-09-10T17:57:08.388Z,16.67
2022-09-10T17:59:39.417Z,16.63
2022-09-10T18:02:08.771Z,16.60
2022-09-10T18:04:38.012Z,16.66
2022-09-10T18:07:07.622Z,16.53
2022-09-10T18:09:38.133Z,16.58
2022-09-10T18:12:06.231Z,16.54
2022-09-10T18:14:37.304Z,16.48
2022-09-10T18:17:06.689Z,16.59
2022-09-10T18:19:34.538Z,16.53
2022-09-10T18:22:02.972Z,16.52
2022-09-10T18:24:31.678Z,16.39
2022-09-10T18:27:04.333Z,16.56
2022-09-10T18:29:35.224Z,16.51
2022-09-10T18:32:05.903Z,16.43
2022-09-10T18:34:36.571Z,16.39
2022-09-10T18:37:04.899Z,16.31
2022-09-10T18:39:34.492Z,16.37
2022-09-10T18:42:04.849Z,16.33
2022-09-10T18:44:35.320Z,16.23
2022-09-10T18:47:17.697Z,16.16
2022-09-10T18:49:56.221Z,16.27
2022-09-10T18:52:23.914Z,16.16
2022-09-10T18:54:52.888Z,16.15
2022-09-10T18:57:20.490Z,16.17
2022-09-10T18:59:48.598Z,16.24
2022-09-10T19:02:17.923Z,16.20
2022-09-10T19:05:07.771Z,16.18
2022-09-10T19:07:39.227Z,16.12
2022-09-10T19:10:08.846Z,16.12
2022-09-10T19:12:36.455Z,16.03
2022-09-10T19:15:04.329Z,16.03
2022-09-10T19:17:32.102Z,16.06
2022-09-10T19:19:59.897Z,16.00
2022-09-10T19:22:30.061Z,15.92
2022-09-10T19:25:00.640Z,15.93
2022-09-10T19:27:30.798Z,15.92
2022-09-10T19:30:01.264Z,15.99
2022-09-10T19:32:29.053Z,16.00
2022-09-10T19:34:57.648Z,15.91
2022-09-10T19:37:25.798Z,16.02
2022-09-10T19:39:56.468Z,15.89
2022-09-10T19:42:25.511Z,16.04
2022-09-10T19:44:53.115Z,15.94
2022-09-10T19:47:20.962Z,15.81
2022-09-10T19:49:48.733Z,15.96
2022-09-10T19:52:17.200Z,15.81
2022-09-10T19:54:44.900Z,15.69
2022-09-10T19:57:12.759Z,15.71
2022-09-10T19:59:43.111Z,15.67
2022-09-10T20:02:12.222Z,15.73
2022-09-10T20:04:42.014Z,15.73
2022-09-10T20:07:11.811Z,15.71
2022-09-10T20:09:40.994Z,15.70
2022-09-10T20:12:09.353Z,15.67
2022-09-10T20:14:37.249Z,15.76
2022-09-10T20:17:06.184Z,15.73
2022-09-10T20:19:33.948Z,15.71
2022-09-10T20:22:01.588Z,15.69
2022-09-10T20:24:29.344Z,15.62
2022-09-10T20:26:56.999Z,15.55
2022-09-10T20:29:25.405Z,15.64
2022-09-10T20:31:53.387Z,15.67
2022-09-10T20:34:23.070Z,15.61
2022-09-10T20:36:52.125Z,15.61
2022-09-10T20:39:22.294Z,15.63
2022-09-10T20:41:50.202Z,15.58
2022-09-10T20:44:20.947Z,15.70
2022-09-10T20:46:48.591Z,15.68
2022-09-10T20:49:17.110Z,15.69
2022-09-10T20:51:46.280Z,15.74
2022-09-10T20:54:15.839Z,15.84
2022-09-10T20:56:43.795Z,15.75
2022-09-10T20:59:12.679Z,15.75
2022-09-10T21:01:44.436Z,15.77
2022-09-10T21:04:12.965Z,15.88
2022-09-10T21:06:40.934Z,15.87
2022-09-10T21:09:10.187Z,15.86
2022-09-10T21:11:38.313Z,15.85
2022-09-10T21:14:07.566Z,15.81
2022-09-10T21:16:40.482Z,15.81
2022-09-10T21:19:12.127Z,15.84
2022-09-10T21:21:48.937Z,15.82
2022-09-10T21:24:33.865Z,15.87
2022-09-10T21:27:03.700Z,15.74
2022-09-10T21:29:34.036Z,15.79
2022-09-10T21:32:06.659Z,15.82
2022-09-10T21:34:34.469Z,15.87
2022-09-10T21:37:02.273Z,15.77
2022-09-10T21:39:39.503Z,15.76
2022-09-10T21:42:17.066Z,15.72
2022-09-10T21:44:58.711Z,15.80
2022-09-10T21:47:30.378Z,15.76
2022-09-10T21:50:06.652Z,15.60
2022-09-10T21:52:39.920Z,15.64
2022-09-10T21:55:20.575Z,15.87
2022-09-10T21:57:48.905Z,15.90
2022-09-10T22:00:31.913Z,15.85
2022-09-10T22:03:03.639Z,15.85
2022-09-10T22:05:31.766Z,15.85
2022-09-10T22:08:24.183Z,15.66
2022-09-10T22:11:25.485Z,15.66
2022-09-10T22:14:03.857Z,15.60
2022-09-10T22:16:45.006Z,15.56
2022-09-10T22:19:25.966Z,15.62
2022-09-10T22:22:11.835Z,15.56
2022-09-10T22:24:42.456Z,15.43
2022-09-10T22:27:15.341Z,15.58
2022-09-10T22:29:50.719Z,15.54
2022-09-10T22:32:23.208Z,15.52
2022-09-10T22:34:54.319Z,15.62
2022-09-10T22:37:24.093Z,15.57
2022-09-10T22:39:53.817Z,15.54
2022-09-10T22:42:26.873Z,15.56
2022-09-10T22:44:57.176Z,15.68
2022-09-10T22:47:25.477Z,15.48
2022-09-10T22:49:54.592Z,15.49
2022-09-10T22:52:34.092Z,15.57
2022-09-10T22:55:07.786Z,15.47
2022-09-10T22:57:38.522Z,15.49
2022-09-10T23:00:08.923Z,15.55
2022-09-10T23:02:38.752Z,15.51
2022-09-10T23:05:07.930Z,15.54
2022-09-10T23:07:37.040Z,15.51
2022-09-10T23:10:20.462Z,15.47
2022-09-10T23:13:15.587Z,15.54
2022-09-10T23:15:43.555Z,15.50
2022-09-10T23:18:11.238Z,15.46
2022-09-10T23:20:53.295Z,15.48
2022-09-10T23:23:32.377Z,15.53
2022-09-10T23:26:41.367Z,15.58
2022-09-10T23:29:51.387Z,15.48
2022-09-10T23:32:48.941Z,15.54
2022-09-10T23:35:16.979Z,15.59
2022-09-10T23:37:47.249Z,15.63
2022-09-10T23:40:24.577Z,15.63
2022-09-10T23:42:54.789Z,15.58
2022-09-10T23:45:23.926Z,15.64
2022-09-10T23:47:55.736Z,15.61
2022-09-10T23:50:26.894Z,15.56
2022-09-10T23:52:56.706Z,15.46
2022-09-10T23:55:25.645Z,15.39
2022-09-10T23:57:55.528Z,15.45
